sensor_id;sensor_type;location;lat;lon;timestamp;temperature;humidity
52034;DHT22;38045;52.988;6.536;2023-04-21T00:00:48;9.30;99.90
52034;DHT22;38045;52.988;6.536;2023-04-21T00:03:13;9.30;99.90
52034;DHT22;38045;52.988;6.536;2023-04-21T00:05:39;9.30;99.90
52034;DHT22;38045;52.988;6.536;2023-04-21T00:08:07;9.30;99.90
52034;DHT22;38045;52.988;6.536;2023-04-21T00:10:33;9.30;99.90
52034;DHT22;38045;52.988;6.536;2023-04-21T00:12:59;9.30;99.90
52034;DHT22;38045;52.988;6.536;2023-04-21T00:15:24;9.30;99.90
52034;DHT22;38045;52.988;6.536;2023-04-21T00:17:50;9.30;99.90
52034;DHT22;38045;52.988;6.536;2023-04-21T00:20:16;9.30;99.90
52034;DHT22;38045;52.988;6.536;2023-04-21T00:22:41;9.30;99.90
52034;DHT22;38045;52.988;6.536;2023-04-21T00:25:08;9.30;99.90
52034;DHT22;38045;52.988;6.536;2023-04-21T00:27:33;9.30;99.90
52034;DHT22;38045;52.988;6.536;2023-04-21T00:29:59;9.30;99.90
52034;DHT22;38045;52.988;6.536;2023-04-21T00:32:25;9.30;99.90
52034;DHT22;38045;52.988;6.536;2023-04-21T00:34:50;9.30;99.90
52034;DHT22;38045;52.988;6.536;2023-04-21T00:37:16;9.30;99.90
52034;DHT22;38045;52.988;6.536;2023-04-21T00:39:41;9.20;99.90
52034;DHT22;38045;52.988;6.536;2023-04-21T00:42:07;9.20;99.90
52034;DHT22;38045;52.988;6.536;2023-04-21T00:44:33;9.20;99.90
52034;DHT22;38045;52.988;6.536;2023-04-21T00:46:58;9.20;99.90
52034;DHT22;38045;52.988;6.536;2023-04-21T00:49:24;9.20;99.90
52034;DHT22;38045;52.988;6.536;2023-04-21T00:51:51;9.20;99.90
52034;DHT22;38045;52.988;6.536;2023-04-21T00:54:17;9.10;99.90
52034;DHT22;38045;52.988;6.536;2023-04-21T00:56:43;9.10;99.90
52034;DHT22;38045;52.988;6.536;2023-04-21T00:59:09;9.10;99.90
52034;DHT22;38045;52.988;6.536;2023-04-21T01:01:35;9.00;99.90
52034;DHT22;38045;52.988;6.536;2023-04-21T01:04:02;9.10;99.90
52034;DHT22;38045;52.988;6.536;2023-04-21T01:06:29;9.00;99.90
52034;DHT22;38045;52.988;6.536;2023-04-21T01:08:57;9.00;99.90
52034;DHT22;38045;52.988;6.536;2023-04-21T01:11:22;9.00;99.90
52034;DHT22;38045;52.988;6.536;2023-04-21T01:13:51;9.00;99.90
52034;DHT22;38045;52.988;6.536;2023-04-21T01:16:18;9.00;99.90
52034;DHT22;38045;52.988;6.536;2023-04-21T01:18:47;9.00;99.90
52034;DHT22;38045;52.988;6.536;2023-04-21T01:21:14;9.00;99.90
52034;DHT22;38045;52.988;6.536;2023-04-21T01:23:40;9.00;99.90
52034;DHT22;38045;52.988;6.536;2023-04-21T01:26:06;9.00;99.90
52034;DHT22;38045;52.988;6.536;2023-04-21T01:28:32;9.00;99.90
52034;DHT22;38045;52.988;6.536;2023-04-21T01:30:57;9.00;99.90
52034;DHT22;38045;52.988;6.536;2023-04-21T01:33:23;9.00;99.90
52034;DHT22;38045;52.988;6.536;2023-04-21T01:35:49;8.90;99.90
52034;DHT22;38045;52.988;6.536;2023-04-21T01:38:15;9.00;99.90
52034;DHT22;38045;52.988;6.536;2023-04-21T01:40:46;8.90;99.90
52034;DHT22;38045;52.988;6.536;2023-04-21T01:43:13;9.00;99.90
52034;DHT22;38045;52.988;6.536;2023-04-21T01:45:38;8.90;99.90
52034;DHT22;38045;52.988;6.536;2023-04-21T01:48:04;8.90;99.90
52034;DHT22;38045;52.988;6.536;2023-04-21T01:50:30;8.90;99.90
52034;DHT22;38045;52.988;6.536;2023-04-21T01:52:55;8.80;99.90
52034;DHT22;38045;52.988;6.536;2023-04-21T01:55:21;8.80;99.90
52034;DHT22;38045;52.988;6.536;2023-04-21T01:57:47;8.80;99.90
52034;DHT22;38045;52.988;6.536;2023-04-21T02:00:13;8.70;99.90
52034;DHT22;38045;52.988;6.536;2023-04-21T02:02:39;8.70;99.90
52034;DHT22;38045;52.988;6.536;2023-04-21T02:05:04;8.70;99.90
52034;DHT22;38045;52.988;6.536;2023-04-21T02:07:30;8.70;99.90
52034;DHT22;38045;52.988;6.536;2023-04-21T02:09:56;8.70;99.90
52034;DHT22;38045;52.988;6.536;2023-04-21T02:12:21;8.60;99.90
52034;DHT22;38045;52.988;6.536;2023-04-21T02:14:47;8.70;99.90
52034;DHT22;38045;52.988;6.536;2023-04-21T02:17:14;8.60;99.90
52034;DHT22;38045;52.988;6.536;2023-04-21T02:19:39;8.60;99.90
52034;DHT22;38045;52.988;6.536;2023-04-21T02:22:05;8.60;99.90
52034;DHT22;38045;52.988;6.536;2023-04-21T02:24:33;8.60;99.90
52034;DHT22;38045;52.988;6.536;2023-04-21T02:26:59;8.50;99.90
52034;DHT22;38045;52.988;6.536;2023-04-21T02:29:24;8.50;99.90
52034;DHT22;38045;52.988;6.536;2023-04-21T02:31:50;8.60;99.90
52034;DHT22;38045;52.988;6.536;2023-04-21T02:34:16;8.50;99.90
52034;DHT22;38045;52.988;6.536;2023-04-21T02:36:41;8.50;99.90
52034;DHT22;38045;52.988;6.536;2023-04-21T02:39:07;8.50;99.90
52034;DHT22;38045;52.988;6.536;2023-04-21T02:41:32;8.50;99.90
52034;DHT22;38045;52.988;6.536;2023-04-21T02:43:58;8.40;99.90
52034;DHT22;38045;52.988;6.536;2023-04-21T02:46:24;8.50;99.90
52034;DHT22;38045;52.988;6.536;2023-04-21T02:48:49;8.40;99.90
52034;DHT22;38045;52.988;6.536;2023-04-21T02:51:15;8.40;99.90
52034;DHT22;38045;52.988;6.536;2023-04-21T02:53:41;8.40;99.90
52034;DHT22;38045;52.988;6.536;2023-04-21T02:56:07;8.40;99.90
52034;DHT22;38045;52.988;6.536;2023-04-21T02:58:34;8.30;99.90
52034;DHT22;38045;52.988;6.536;2023-04-21T03:01:01;8.30;99.90
52034;DHT22;38045;52.988;6.536;2023-04-21T03:03:27;8.30;99.90
52034;DHT22;38045;52.988;6.536;2023-04-21T03:06:01;8.30;99.90
52034;DHT22;38045;52.988;6.536;2023-04-21T03:08:27;8.30;99.90
52034;DHT22;38045;52.988;6.536;2023-04-21T03:10:52;8.30;99.90
52034;DHT22;38045;52.988;6.536;2023-04-21T03:13:18;8.30;99.90
52034;DHT22;38045;52.988;6.536;2023-04-21T03:15:44;8.30;99.90
52034;DHT22;38045;52.988;6.536;2023-04-21T03:18:10;8.30;99.90
52034;DHT22;38045;52.988;6.536;2023-04-21T03:20:36;8.20;99.90
52034;DHT22;38045;52.988;6.536;2023-04-21T03:23:02;8.20;99.90
52034;DHT22;38045;52.988;6.536;2023-04-21T03:25:30;8.20;99.90
52034;DHT22;38045;52.988;6.536;2023-04-21T03:27:56;8.20;99.90
52034;DHT22;38045;52.988;6.536;2023-04-21T03:30:22;8.20;99.90
52034;DHT22;38045;52.988;6.536;2023-04-21T03:32:48;8.20;99.90
52034;DHT22;38045;52.988;6.536;2023-04-21T03:35:14;8.20;99.90
52034;DHT22;38045;52.988;6.536;2023-04-21T03:37:40;8.20;99.90
52034;DHT22;38045;52.988;6.536;2023-04-21T03:40:07;8.20;99.90
52034;DHT22;38045;52.988;6.536;2023-04-21T03:42:35;8.10;99.90
52034;DHT22;38045;52.988;6.536;2023-04-21T03:45:05;8.20;99.90
52034;DHT22;38045;52.988;6.536;2023-04-21T03:47:31;8.20;99.90
52034;DHT22;38045;52.988;6.536;2023-04-21T03:49:56;8.20;99.90
52034;DHT22;38045;52.988;6.536;2023-04-21T03:52:22;8.20;99.90
52034;DHT22;38045;52.988;6.536;2023-04-21T03:54:49;8.10;99.90
52034;DHT22;38045;52.988;6.536;2023-04-21T03:57:14;8.10;99.90
52034;DHT22;38045;52.988;6.536;2023-04-21T03:59:40;8.10;99.90
52034;DHT22;38045;52.988;6.536;2023-04-21T04:02:06;8.10;99.90
52034;DHT22;38045;52.988;6.536;2023-04-21T04:04:31;8.10;99.90
52034;DHT22;38045;52.988;6.536;2023-04-21T04:06:57;8.00;99.90
52034;DHT22;38045;52.988;6.536;2023-04-21T04:09:23;8.00;99.90
52034;DHT22;38045;52.988;6.536;2023-04-21T04:11:49;8.10;99.90
52034;DHT22;38045;52.988;6.536;2023-04-21T04:14:15;8.10;99.90
52034;DHT22;38045;52.988;6.536;2023-04-21T04:16:40;8.00;99.90
52034;DHT22;38045;52.988;6.536;2023-04-21T04:19:06;8.00;99.90
52034;DHT22;38045;52.988;6.536;2023-04-21T04:21:32;8.00;99.90
52034;DHT22;38045;52.988;6.536;2023-04-21T04:23:58;8.00;99.90
52034;DHT22;38045;52.988;6.536;2023-04-21T04:26:24;8.00;99.90
52034;DHT22;38045;52.988;6.536;2023-04-21T04:28:51;8.00;99.90
52034;DHT22;38045;52.988;6.536;2023-04-21T04:31:17;7.90;99.90
52034;DHT22;38045;52.988;6.536;2023-04-21T04:33:43;7.90;99.90
52034;DHT22;38045;52.988;6.536;2023-04-21T04:36:09;7.90;99.90
52034;DHT22;38045;52.988;6.536;2023-04-21T04:38:36;7.90;99.90
52034;DHT22;38045;52.988;6.536;2023-04-21T04:41:02;7.90;99.90
52034;DHT22;38045;52.988;6.536;2023-04-21T04:43:29;8.00;99.90
52034;DHT22;38045;52.988;6.536;2023-04-21T04:45:58;8.00;99.90
52034;DHT22;38045;52.988;6.536;2023-04-21T04:48:24;8.00;99.90
52034;DHT22;38045;52.988;6.536;2023-04-21T04:50:49;8.00;99.90
52034;DHT22;38045;52.988;6.536;2023-04-21T04:53:15;8.00;99.90
52034;DHT22;38045;52.988;6.536;2023-04-21T04:55:41;8.00;99.90
52034;DHT22;38045;52.988;6.536;2023-04-21T04:58:06;8.00;99.90
52034;DHT22;38045;52.988;6.536;2023-04-21T05:00:32;8.00;99.90
52034;DHT22;38045;52.988;6.536;2023-04-21T05:02:57;8.10;99.90
52034;DHT22;38045;52.988;6.536;2023-04-21T05:05:23;8.10;99.90
52034;DHT22;38045;52.988;6.536;2023-04-21T05:07:52;8.20;99.90
52034;DHT22;38045;52.988;6.536;2023-04-21T05:10:17;8.20;99.90
52034;DHT22;38045;52.988;6.536;2023-04-21T05:12:43;8.20;99.90
52034;DHT22;38045;52.988;6.536;2023-04-21T05:15:09;8.20;99.90
52034;DHT22;38045;52.988;6.536;2023-04-21T05:17:35;8.30;99.90
52034;DHT22;38045;52.988;6.536;2023-04-21T05:20:00;8.30;99.90
52034;DHT22;38045;52.988;6.536;2023-04-21T05:22:27;8.40;99.90
52034;DHT22;38045;52.988;6.536;2023-04-21T05:24:53;8.40;99.90
52034;DHT22;38045;52.988;6.536;2023-04-21T05:27:19;8.50;99.90
52034;DHT22;38045;52.988;6.536;2023-04-21T05:29:44;8.50;99.90
52034;DHT22;38045;52.988;6.536;2023-04-21T05:32:10;8.50;99.90
52034;DHT22;38045;52.988;6.536;2023-04-21T05:34:37;8.60;99.90
52034;DHT22;38045;52.988;6.536;2023-04-21T05:37:03;8.70;99.90
52034;DHT22;38045;52.988;6.536;2023-04-21T05:39:29;8.70;99.90
52034;DHT22;38045;52.988;6.536;2023-04-21T05:41:54;8.80;99.90
52034;DHT22;38045;52.988;6.536;2023-04-21T05:44:20;8.80;99.90
52034;DHT22;38045;52.988;6.536;2023-04-21T05:46:46;8.80;99.90
52034;DHT22;38045;52.988;6.536;2023-04-21T05:49:11;8.80;99.90
52034;DHT22;38045;52.988;6.536;2023-04-21T05:51:37;8.90;99.90
52034;DHT22;38045;52.988;6.536;2023-04-21T05:54:02;8.90;99.90
52034;DHT22;38045;52.988;6.536;2023-04-21T05:56:28;9.00;99.90
52034;DHT22;38045;52.988;6.536;2023-04-21T05:58:54;9.00;99.90
52034;DHT22;38045;52.988;6.536;2023-04-21T06:01:19;9.20;99.90
52034;DHT22;38045;52.988;6.536;2023-04-21T06:03:45;9.20;99.90
52034;DHT22;38045;52.988;6.536;2023-04-21T06:06:13;9.30;99.90
52034;DHT22;38045;52.988;6.536;2023-04-21T06:08:39;9.30;99.90
52034;DHT22;38045;52.988;6.536;2023-04-21T06:11:05;9.40;99.90
52034;DHT22;38045;52.988;6.536;2023-04-21T06:13:30;9.50;99.90
52034;DHT22;38045;52.988;6.536;2023-04-21T06:15:56;9.50;99.90
52034;DHT22;38045;52.988;6.536;2023-04-21T06:18:22;9.60;99.90
52034;DHT22;38045;52.988;6.536;2023-04-21T06:20:57;9.70;99.90
52034;DHT22;38045;52.988;6.536;2023-04-21T06:23:23;9.80;99.90
52034;DHT22;38045;52.988;6.536;2023-04-21T06:26:05;9.90;99.90
52034;DHT22;38045;52.988;6.536;2023-04-21T06:28:32;9.90;99.90
52034;DHT22;38045;52.988;6.536;2023-04-21T06:30:58;10.10;99.90
52034;DHT22;38045;52.988;6.536;2023-04-21T06:33:24;10.20;99.90
52034;DHT22;38045;52.988;6.536;2023-04-21T06:35:51;10.30;99.90
52034;DHT22;38045;52.988;6.536;2023-04-21T06:38:16;10.50;99.90
52034;DHT22;38045;52.988;6.536;2023-04-21T06:40:42;10.60;99.90
52034;DHT22;38045;52.988;6.536;2023-04-21T06:43:08;10.70;99.90
52034;DHT22;38045;52.988;6.536;2023-04-21T06:45:34;10.80;99.90
52034;DHT22;38045;52.988;6.536;2023-04-21T06:47:59;11.00;99.90
52034;DHT22;38045;52.988;6.536;2023-04-21T06:50:25;11.00;99.90
52034;DHT22;38045;52.988;6.536;2023-04-21T06:52:51;11.10;99.90
52034;DHT22;38045;52.988;6.536;2023-04-21T06:55:16;11.10;99.90
52034;DHT22;38045;52.988;6.536;2023-04-21T06:57:42;11.20;99.90
52034;DHT22;38045;52.988;6.536;2023-04-21T07:00:08;11.20;99.90
52034;DHT22;38045;52.988;6.536;2023-04-21T07:02:34;11.30;99.90
52034;DHT22;38045;52.988;6.536;2023-04-21T07:04:59;11.40;99.90
52034;DHT22;38045;52.988;6.536;2023-04-21T07:07:25;11.40;99.90
52034;DHT22;38045;52.988;6.536;2023-04-21T07:09:51;11.40;99.90
52034;DHT22;38045;52.988;6.536;2023-04-21T07:12:16;11.30;99.90
52034;DHT22;38045;52.988;6.536;2023-04-21T07:14:42;11.30;99.90
52034;DHT22;38045;52.988;6.536;2023-04-21T07:17:07;11.30;99.90
52034;DHT22;38045;52.988;6.536;2023-04-21T07:19:33;11.30;99.90
52034;DHT22;38045;52.988;6.536;2023-04-21T07:21:59;11.30;99.90
52034;DHT22;38045;52.988;6.536;2023-04-21T07:24:24;11.30;99.90
52034;DHT22;38045;52.988;6.536;2023-04-21T07:26:50;11.40;99.90
52034;DHT22;38045;52.988;6.536;2023-04-21T07:29:15;11.50;99.90
52034;DHT22;38045;52.988;6.536;2023-04-21T07:31:41;11.60;99.90
52034;DHT22;38045;52.988;6.536;2023-04-21T07:34:06;11.70;99.90
52034;DHT22;38045;52.988;6.536;2023-04-21T07:36:32;11.90;99.90
52034;DHT22;38045;52.988;6.536;2023-04-21T07:38:58;12.00;99.90
52034;DHT22;38045;52.988;6.536;2023-04-21T07:41:23;11.90;99.90
52034;DHT22;38045;52.988;6.536;2023-04-21T07:43:49;12.00;99.90
52034;DHT22;38045;52.988;6.536;2023-04-21T07:46:14;12.00;99.90
52034;DHT22;38045;52.988;6.536;2023-04-21T07:48:40;12.10;99.90
52034;DHT22;38045;52.988;6.536;2023-04-21T07:51:06;12.10;99.90
52034;DHT22;38045;52.988;6.536;2023-04-21T07:53:31;12.20;99.90
52034;DHT22;38045;52.988;6.536;2023-04-21T07:55:57;12.30;99.90
52034;DHT22;38045;52.988;6.536;2023-04-21T07:58:23;12.30;99.90
52034;DHT22;38045;52.988;6.536;2023-04-21T08:00:48;12.40;99.90
52034;DHT22;38045;52.988;6.536;2023-04-21T08:03:14;12.40;99.90
52034;DHT22;38045;52.988;6.536;2023-04-21T08:05:40;12.40;99.90
52034;DHT22;38045;52.988;6.536;2023-04-21T08:08:06;12.50;99.90
52034;DHT22;38045;52.988;6.536;2023-04-21T08:10:32;12.60;99.90
52034;DHT22;38045;52.988;6.536;2023-04-21T08:12:58;12.70;99.90
52034;DHT22;38045;52.988;6.536;2023-04-21T08:15:24;12.90;99.90
52034;DHT22;38045;52.988;6.536;2023-04-21T08:17:49;13.00;99.90
52034;DHT22;38045;52.988;6.536;2023-04-21T08:20:15;13.10;99.90
52034;DHT22;38045;52.988;6.536;2023-04-21T08:22:41;13.10;99.90
52034;DHT22;38045;52.988;6.536;2023-04-21T08:25:07;13.10;99.90
52034;DHT22;38045;52.988;6.536;2023-04-21T08:27:33;13.20;99.90
52034;DHT22;38045;52.988;6.536;2023-04-21T08:30:01;13.30;99.90
52034;DHT22;38045;52.988;6.536;2023-04-21T08:32:27;13.50;99.90
52034;DHT22;38045;52.988;6.536;2023-04-21T08:34:53;13.70;99.90
52034;DHT22;38045;52.988;6.536;2023-04-21T08:37:20;13.80;99.90
52034;DHT22;38045;52.988;6.536;2023-04-21T08:39:47;13.90;99.90
52034;DHT22;38045;52.988;6.536;2023-04-21T08:42:16;13.90;99.90
52034;DHT22;38045;52.988;6.536;2023-04-21T08:44:42;13.90;99.90
52034;DHT22;38045;52.988;6.536;2023-04-21T08:47:09;14.00;99.90
52034;DHT22;38045;52.988;6.536;2023-04-21T08:49:40;14.20;99.90
52034;DHT22;38045;52.988;6.536;2023-04-21T08:52:07;14.60;99.90
52034;DHT22;38045;52.988;6.536;2023-04-21T08:54:33;14.40;99.90
52034;DHT22;38045;52.988;6.536;2023-04-21T08:57:01;14.60;99.90
52034;DHT22;38045;52.988;6.536;2023-04-21T08:59:28;14.60;99.90
52034;DHT22;38045;52.988;6.536;2023-04-21T09:04:44;14.90;99.90
52034;DHT22;38045;52.988;6.536;2023-04-21T09:07:10;14.90;99.90
52034;DHT22;38045;52.988;6.536;2023-04-21T09:09:53;14.90;99.90
52034;DHT22;38045;52.988;6.536;2023-04-21T09:12:19;14.80;99.90
52034;DHT22;38045;52.988;6.536;2023-04-21T09:14:45;14.80;99.90
52034;DHT22;38045;52.988;6.536;2023-04-21T09:17:10;14.90;99.90
52034;DHT22;38045;52.988;6.536;2023-04-21T09:19:36;15.00;99.90
52034;DHT22;38045;52.988;6.536;2023-04-21T09:22:02;15.10;99.90
52034;DHT22;38045;52.988;6.536;2023-04-21T09:24:28;15.20;99.90
52034;DHT22;38045;52.988;6.536;2023-04-21T09:26:54;15.20;99.90
52034;DHT22;38045;52.988;6.536;2023-04-21T09:29:22;15.30;99.90
52034;DHT22;38045;52.988;6.536;2023-04-21T09:31:51;15.40;99.90
52034;DHT22;38045;52.988;6.536;2023-04-21T09:34:24;15.50;99.90
52034;DHT22;38045;52.988;6.536;2023-04-21T09:37:01;15.50;99.90
52034;DHT22;38045;52.988;6.536;2023-04-21T09:39:31;15.60;99.90
52034;DHT22;38045;52.988;6.536;2023-04-21T09:41:57;15.80;99.90
52034;DHT22;38045;52.988;6.536;2023-04-21T09:44:29;15.80;99.90
52034;DHT22;38045;52.988;6.536;2023-04-21T09:46:59;15.80;99.90
52034;DHT22;38045;52.988;6.536;2023-04-21T09:49:29;15.90;99.90
52034;DHT22;38045;52.988;6.536;2023-04-21T09:51:57;15.80;99.90
52034;DHT22;38045;52.988;6.536;2023-04-21T09:54:29;15.90;99.90
52034;DHT22;38045;52.988;6.536;2023-04-21T09:56:58;15.80;99.90
52034;DHT22;38045;52.988;6.536;2023-04-21T09:59:25;15.90;99.90
52034;DHT22;38045;52.988;6.536;2023-04-21T10:01:54;15.90;99.90
52034;DHT22;38045;52.988;6.536;2023-04-21T10:04:24;15.90;99.90
52034;DHT22;38045;52.988;6.536;2023-04-21T10:06:50;15.90;99.90
52034;DHT22;38045;52.988;6.536;2023-04-21T10:09:17;15.90;99.90
52034;DHT22;38045;52.988;6.536;2023-04-21T10:11:45;16.00;99.90
52034;DHT22;38045;52.988;6.536;2023-04-21T10:14:11;16.10;99.90
52034;DHT22;38045;52.988;6.536;2023-04-21T10:16:37;16.20;99.90
52034;DHT22;38045;52.988;6.536;2023-04-21T10:19:22;16.30;99.90
52034;DHT22;38045;52.988;6.536;2023-04-21T10:21:49;16.50;99.90
52034;DHT22;38045;52.988;6.536;2023-04-21T10:24:15;16.80;99.90
52034;DHT22;38045;52.988;6.536;2023-04-21T10:26:41;17.00;99.90
52034;DHT22;38045;52.988;6.536;2023-04-21T10:29:07;17.30;99.90
52034;DHT22;38045;52.988;6.536;2023-04-21T10:34:16;17.20;99.90
52034;DHT22;38045;52.988;6.536;2023-04-21T10:36:50;17.30;99.90
52034;DHT22;38045;52.988;6.536;2023-04-21T10:39:51;17.50;99.90
52034;DHT22;38045;52.988;6.536;2023-04-21T10:42:27;17.80;99.90
52034;DHT22;38045;52.988;6.536;2023-04-21T10:47:34;18.10;99.90
52034;DHT22;38045;52.988;6.536;2023-04-21T10:50:17;18.20;99.90
52034;DHT22;38045;52.988;6.536;2023-04-21T10:52:46;18.50;99.90
52034;DHT22;38045;52.988;6.536;2023-04-21T10:55:12;18.60;99.90
52034;DHT22;38045;52.988;6.536;2023-04-21T10:57:42;18.80;99.90
52034;DHT22;38045;52.988;6.536;2023-04-21T11:00:09;18.90;99.90
52034;DHT22;38045;52.988;6.536;2023-04-21T11:02:36;19.20;99.90
52034;DHT22;38045;52.988;6.536;2023-04-21T11:05:01;19.20;99.90
52034;DHT22;38045;52.988;6.536;2023-04-21T11:07:27;19.40;99.90
52034;DHT22;38045;52.988;6.536;2023-04-21T11:10:06;19.50;99.90
52034;DHT22;38045;52.988;6.536;2023-04-21T11:12:34;19.50;99.90
52034;DHT22;38045;52.988;6.536;2023-04-21T11:15:09;19.50;99.90
52034;DHT22;38045;52.988;6.536;2023-04-21T11:17:35;19.40;99.90
52034;DHT22;38045;52.988;6.536;2023-04-21T11:20:04;19.60;99.90
52034;DHT22;38045;52.988;6.536;2023-04-21T11:22:31;19.80;99.90
52034;DHT22;38045;52.988;6.536;2023-04-21T11:24:57;20.00;99.90
52034;DHT22;38045;52.988;6.536;2023-04-21T11:27:25;20.10;99.90
52034;DHT22;38045;52.988;6.536;2023-04-21T11:29:51;20.00;99.90
52034;DHT22;38045;52.988;6.536;2023-04-21T11:32:17;19.80;99.90
52034;DHT22;38045;52.988;6.536;2023-04-21T11:34:43;19.80;99.90
52034;DHT22;38045;52.988;6.536;2023-04-21T11:37:29;19.80;98.80
52034;DHT22;38045;52.988;6.536;2023-04-21T11:39:57;19.70;99.90
52034;DHT22;38045;52.988;6.536;2023-04-21T11:42:23;19.60;99.70
52034;DHT22;38045;52.988;6.536;2023-04-21T11:44:49;19.50;99.90
52034;DHT22;38045;52.988;6.536;2023-04-21T11:47:20;19.30;99.90
52034;DHT22;38045;52.988;6.536;2023-04-21T11:49:51;19.50;99.20
52034;DHT22;38045;52.988;6.536;2023-04-21T11:52:20;19.70;98.50
52034;DHT22;38045;52.988;6.536;2023-04-21T11:54:46;20.10;99.10
52034;DHT22;38045;52.988;6.536;2023-04-21T11:57:12;20.40;99.00
52034;DHT22;38045;52.988;6.536;2023-04-21T11:59:44;20.40;96.60
52034;DHT22;38045;52.988;6.536;2023-04-21T12:02:12;20.10;97.10
52034;DHT22;38045;52.988;6.536;2023-04-21T12:04:59;19.80;97.80
52034;DHT22;38045;52.988;6.536;2023-04-21T12:07:25;19.50;97.90
52034;DHT22;38045;52.988;6.536;2023-04-21T12:09:51;19.40;98.10
52034;DHT22;38045;52.988;6.536;2023-04-21T12:12:17;19.30;97.50
52034;DHT22;38045;52.988;6.536;2023-04-21T12:14:43;19.20;97.30
52034;DHT22;38045;52.988;6.536;2023-04-21T12:17:09;19.30;97.90
52034;DHT22;38045;52.988;6.536;2023-04-21T12:19:37;19.40;96.40
52034;DHT22;38045;52.988;6.536;2023-04-21T12:22:16;19.70;97.00
52034;DHT22;38045;52.988;6.536;2023-04-21T12:24:47;20.20;96.80
52034;DHT22;38045;52.988;6.536;2023-04-21T12:27:13;20.70;97.20
52034;DHT22;38045;52.988;6.536;2023-04-21T12:29:39;20.80;95.70
52034;DHT22;38045;52.988;6.536;2023-04-21T12:32:06;20.50;93.70
52034;DHT22;38045;52.988;6.536;2023-04-21T12:34:32;20.20;94.20
52034;DHT22;38045;52.988;6.536;2023-04-21T12:36:58;19.90;93.70
52034;DHT22;38045;52.988;6.536;2023-04-21T12:39:23;19.70;93.60
52034;DHT22;38045;52.988;6.536;2023-04-21T12:41:49;19.70;92.80
52034;DHT22;38045;52.988;6.536;2023-04-21T12:44:14;20.00;92.80
52034;DHT22;38045;52.988;6.536;2023-04-21T12:46:40;20.40;92.60
52034;DHT22;38045;52.988;6.536;2023-04-21T12:49:06;20.40;93.10
52034;DHT22;38045;52.988;6.536;2023-04-21T12:51:33;20.30;93.00
52034;DHT22;38045;52.988;6.536;2023-04-21T12:53:59;20.20;92.40
52034;DHT22;38045;52.988;6.536;2023-04-21T12:56:25;20.20;93.20
52034;DHT22;38045;52.988;6.536;2023-04-21T12:58:51;20.10;93.70
52034;DHT22;38045;52.988;6.536;2023-04-21T13:01:17;20.30;93.20
52034;DHT22;38045;52.988;6.536;2023-04-21T13:03:43;20.40;92.60
52034;DHT22;38045;52.988;6.536;2023-04-21T13:06:09;20.50;92.10
52034;DHT22;38045;52.988;6.536;2023-04-21T13:08:35;20.50;90.00
52034;DHT22;38045;52.988;6.536;2023-04-21T13:11:01;20.40;91.00
52034;DHT22;38045;52.988;6.536;2023-04-21T13:13:27;20.30;90.30
52034;DHT22;38045;52.988;6.536;2023-04-21T13:15:52;20.20;90.50
52034;DHT22;38045;52.988;6.536;2023-04-21T13:18:18;20.00;90.20
52034;DHT22;38045;52.988;6.536;2023-04-21T13:20:44;20.10;91.30
52034;DHT22;38045;52.988;6.536;2023-04-21T13:23:10;20.10;90.70
52034;DHT22;38045;52.988;6.536;2023-04-21T13:25:37;20.20;88.30
52034;DHT22;38045;52.988;6.536;2023-04-21T13:28:03;20.20;88.80
52034;DHT22;38045;52.988;6.536;2023-04-21T13:30:29;20.10;90.40
52034;DHT22;38045;52.988;6.536;2023-04-21T13:32:54;20.10;89.10
52034;DHT22;38045;52.988;6.536;2023-04-21T13:35:20;20.10;90.20
52034;DHT22;38045;52.988;6.536;2023-04-21T13:37:46;20.10;89.00
52034;DHT22;38045;52.988;6.536;2023-04-21T13:40:13;20.00;86.50
52034;DHT22;38045;52.988;6.536;2023-04-21T13:42:39;20.10;84.50
52034;DHT22;38045;52.988;6.536;2023-04-21T13:45:05;20.20;85.60
52034;DHT22;38045;52.988;6.536;2023-04-21T13:47:34;20.40;87.00
52034;DHT22;38045;52.988;6.536;2023-04-21T13:50:00;20.70;85.60
52034;DHT22;38045;52.988;6.536;2023-04-21T13:52:25;20.80;84.70
52034;DHT22;38045;52.988;6.536;2023-04-21T13:54:52;21.00;86.00
52034;DHT22;38045;52.988;6.536;2023-04-21T13:57:18;21.00;84.00
52034;DHT22;38045;52.988;6.536;2023-04-21T13:59:44;20.80;83.80
52034;DHT22;38045;52.988;6.536;2023-04-21T14:02:10;20.70;86.10
52034;DHT22;38045;52.988;6.536;2023-04-21T14:04:35;20.50;83.60
52034;DHT22;38045;52.988;6.536;2023-04-21T14:07:02;20.30;83.80
52034;DHT22;38045;52.988;6.536;2023-04-21T14:09:27;20.20;83.90
52034;DHT22;38045;52.988;6.536;2023-04-21T14:11:53;20.10;84.30
52034;DHT22;38045;52.988;6.536;2023-04-21T14:14:19;20.10;84.80
52034;DHT22;38045;52.988;6.536;2023-04-21T14:16:45;20.10;84.70
52034;DHT22;38045;52.988;6.536;2023-04-21T14:19:17;20.10;83.60
52034;DHT22;38045;52.988;6.536;2023-04-21T14:21:43;20.10;82.70
52034;DHT22;38045;52.988;6.536;2023-04-21T14:24:08;20.10;80.50
52034;DHT22;38045;52.988;6.536;2023-04-21T14:26:34;20.20;82.10
52034;DHT22;38045;52.988;6.536;2023-04-21T14:29:00;20.10;82.30
52034;DHT22;38045;52.988;6.536;2023-04-21T14:31:26;20.10;83.30
52034;DHT22;38045;52.988;6.536;2023-04-21T14:33:52;20.10;83.50
52034;DHT22;38045;52.988;6.536;2023-04-21T14:36:17;20.30;81.10
52034;DHT22;38045;52.988;6.536;2023-04-21T14:38:43;20.70;81.80
52034;DHT22;38045;52.988;6.536;2023-04-21T14:41:09;21.10;80.40
52034;DHT22;38045;52.988;6.536;2023-04-21T14:43:34;21.40;79.60
52034;DHT22;38045;52.988;6.536;2023-04-21T14:46:00;21.50;78.30
52034;DHT22;38045;52.988;6.536;2023-04-21T14:48:26;21.50;75.80
52034;DHT22;38045;52.988;6.536;2023-04-21T14:50:51;21.70;78.20
52034;DHT22;38045;52.988;6.536;2023-04-21T14:53:17;21.70;76.60
52034;DHT22;38045;52.988;6.536;2023-04-21T14:55:43;21.80;75.50
52034;DHT22;38045;52.988;6.536;2023-04-21T14:58:08;21.90;75.20
52034;DHT22;38045;52.988;6.536;2023-04-21T15:00:34;22.00;75.80
52034;DHT22;38045;52.988;6.536;2023-04-21T15:03:01;22.00;72.90
52034;DHT22;38045;52.988;6.536;2023-04-21T15:05:27;21.80;72.60
52034;DHT22;38045;52.988;6.536;2023-04-21T15:07:53;21.80;74.40
52034;DHT22;38045;52.988;6.536;2023-04-21T15:10:19;21.90;75.40
52034;DHT22;38045;52.988;6.536;2023-04-21T15:12:44;22.00;72.60
52034;DHT22;38045;52.988;6.536;2023-04-21T15:15:10;22.00;72.80
52034;DHT22;38045;52.988;6.536;2023-04-21T15:17:36;21.80;71.40
52034;DHT22;38045;52.988;6.536;2023-04-21T15:20:02;21.60;72.50
52034;DHT22;38045;52.988;6.536;2023-04-21T15:22:28;21.60;71.70
52034;DHT22;38045;52.988;6.536;2023-04-21T15:24:53;21.60;72.10
52034;DHT22;38045;52.988;6.536;2023-04-21T15:27:19;21.40;73.00
52034;DHT22;38045;52.988;6.536;2023-04-21T15:29:45;21.20;72.80
52034;DHT22;38045;52.988;6.536;2023-04-21T15:32:11;21.00;72.50
52034;DHT22;38045;52.988;6.536;2023-04-21T15:34:37;20.80;72.20
52034;DHT22;38045;52.988;6.536;2023-04-21T15:37:03;20.80;72.60
52034;DHT22;38045;52.988;6.536;2023-04-21T15:39:28;20.70;73.20
52034;DHT22;38045;52.988;6.536;2023-04-21T15:41:54;20.70;73.70